Time;durP1;ratioP1;P1;durP2;ratioP2;P2;SDS_P1;SDS_P2;PMS_P1;PMS_P2;Temp;Humidity;BMP_temperature;BMP_pressure;BME280_temperature;BME280_humidity;BME280_pressure;Samples;Min_cycle;Max_cycle;Signal;HPM_P1;HPM_P2
2023/02/24 00:02:39;;;;;;;;;;;;;;;;;;;;;
2023/02/24 00:31:40;;;;;;;;;;;;;;;;;;;;;
2023/02/24 00:35:16;;;;;;;22.80;15.60;;;;;;;7.50;100.00;95755.13;6120532;23;20018;-88
2023/02/24 00:45:42;;;;;;;;;;;;;;;;;;;;;
2023/02/24 00:52:26;;;;;;;21.23;14.07;;;;;;;7.49;100.00;95756.09;6206570;23;20027;-88
2023/02/24 00:56:36;;;;;;;;;;;;;;;;;;;;;
2023/02/24 00:59:24;;;;;;;19.30;13.43;;;;;;;7.33;100.00;95747.13;6111179;23;20012;-92
2023/02/24 01:05:00;;;;;;;19.47;13.57;;;;;;;7.37;100.00;95741.59;6272897;22;20011;-91
2023/02/24 01:08:20;;;;;;;18.13;13.80;;;;;;;7.22;100.00;95744.75;6235482;22;20023;-88
2023/02/24 01:14:47;;;;;;;19.23;13.27;;;;;;;7.32;100.00;95737.66;6307391;22;20530;-88
2023/02/24 01:17:56;;;;;;;20.03;14.03;;;;;;;7.33;100.00;95736.69;6284029;22;20039;-91
2023/02/24 01:20:49;;;;;;;19.60;13.83;;;;;;;7.27;100.00;95732.03;6309673;22;20034;-89
2023/02/24 01:23:19;;;;;;;22.90;15.13;;;;;;;7.30;100.00;95729.13;6256488;22;20022;-88
2023/02/24 01:25:49;;;;;;;22.90;15.37;;;;;;;7.26;100.00;95733.03;6255548;22;20333;-90
2023/02/24 01:28:20;;;;;;;22.57;16.23;;;;;;;7.35;100.00;95733.09;6254378;22;20015;-89
2023/02/24 01:30:51;;;;;;;18.80;14.23;;;;;;;7.33;100.00;95730.63;6252992;22;20026;-90
2023/02/24 01:33:28;;;;;;;23.40;16.00;;;;;;;7.30;100.00;95723.91;6253592;22;20015;-88
2023/02/24 01:35:57;;;;;;;21.77;15.57;;;;;;;7.35;100.00;95717.41;6253080;22;20036;-89
2023/02/24 01:38:25;;;;;;;25.63;17.37;;;;;;;7.40;100.00;95725.59;6278004;22;20011;-89
2023/02/24 01:41:04;;;;;;;25.90;16.70;;;;;;;7.36;100.00;95713.81;6251829;22;20015;-88
2023/02/24 01:44:04;;;;;;;25.60;17.27;;;;;;;7.37;100.00;95715.44;6253178;22;20497;-89
2023/02/24 01:46:33;;;;;;;26.40;16.63;;;;;;;7.40;100.00;95723.00;6251247;22;20015;-89
2023/02/24 01:49:11;;;;;;;24.30;16.63;;;;;;;7.26;100.00;95708.66;6252395;22;20069;-88
2023/02/24 01:52:04;;;;;;;25.03;16.57;;;;;;;7.28;100.00;95710.16;6277244;22;20030;-88
2023/02/24 01:55:08;;;;;;;25.93;17.10;;;;;;;7.23;100.00;95699.31;6273675;22;20018;-88
2023/02/24 01:57:55;;;;;;;26.77;17.10;;;;;;;7.24;100.00;95708.84;6257799;22;20212;-91
2023/02/24 02:00:44;;;;;;;23.07;16.40;;;;;;;7.25;100.00;95700.00;6250511;22;20007;-89
2023/02/24 02:04:07;;;;;;;22.70;17.07;;;;;;;7.32;100.00;95708.88;6254895;22;20007;-89
2023/02/24 02:07:18;;;;;;;;;;;;;;;;;;;;;
2023/02/24 02:10:07;;;;;;;30.80;18.40;;;;;;;7.36;100.00;95716.44;6276524;22;20036;-88
2023/02/24 02:12:36;;;;;;;23.17;17.00;;;;;;;7.40;100.00;95718.56;6251246;22;20021;-89
2023/02/24 02:15:40;;;;;;;25.03;18.17;;;;;;;7.36;100.00;95706.78;6251590;22;20015;-89
2023/02/24 02:18:54;;;;;;;26.97;19.60;;;;;;;7.45;100.00;95708.50;6251361;22;20037;-91
2023/02/24 02:21:58;;;;;;;28.47;19.07;;;;;;;7.38;100.00;95701.38;6277632;22;20015;-90
2023/02/24 02:24:54;;;;;;;26.65;19.23;;;;;;;7.41;100.00;95690.63;6251438;22;20093;-88
2023/02/24 02:27:28;;;;;;;22.97;17.17;;;;;;;7.46;100.00;95689.19;6252115;22;20013;-88
2023/02/24 02:30:31;;;;;;;24.77;16.87;;;;;;;7.42;100.00;95684.44;6251360;22;20090;-88
2023/02/24 02:34:01;;;;;;;;;;;;;;;;;;;;;
2023/02/24 02:37:01;;;;;;;25.80;17.80;;;;;;;7.47;100.00;95690.84;6179709;23;20020;-88
2023/02/24 02:39:40;;;;;;;23.93;17.67;;;;;;;7.38;100.00;95688.31;6252744;22;20358;-88
2023/02/24 02:43:06;;;;;;;;;;;;;;;;;;;;;
2023/02/24 02:50:17;;;;;;;22.57;16.67;;;;;;;7.27;100.00;95677.13;6306631;22;20046;-91
2023/02/24 02:53:13;;;;;;;24.47;17.20;;;;;;;7.33;100.00;95673.09;6271265;22;20057;-88
2023/02/24 02:56:18;;;;;;;26.23;18.13;;;;;;;7.29;100.00;95671.75;6251930;22;20014;-88
2023/02/24 02:59:03;;;;;;;24.73;18.60;;;;;;;7.35;100.00;95668.53;6248231;22;20015;-88
2023/02/24 03:02:10;;;;;;;25.33;18.00;;;;;;;7.33;100.00;95673.09;6184130;23;20020;-87
2023/02/24 03:05:29;;;;;;;;;;;;;;;;;;;;;
2023/02/24 03:08:25;;;;;;;23.97;17.43;;;;;;;7.21;100.00;95659.44;6277522;22;20354;-87
2023/02/24 03:15:03;;;;;;;;;;;;;;;;;;;;;
2023/02/24 03:18:05;;;;;;;25.63;17.87;;;;;;;7.24;100.00;95659.16;6278870;22;20424;-88
2023/02/24 03:20:50;;;;;;;23.00;15.73;;;;;;;7.24;100.00;95660.91;6279767;22;20086;-88
2023/02/24 03:23:33;;;;;;;29.77;14.03;;;;;;;7.07;100.00;95649.50;6253268;22;20022;-88
2023/02/24 03:26:17;;;;;;;14.63;10.57;;;;;;;7.09;100.00;95658.03;6252596;22;20015;-87
2023/02/24 03:29:29;;;;;;;14.97;10.80;;;;;;;7.13;100.00;95650.72;6248002;22;20421;-89
2023/02/24 03:32:03;;;;;;;13.30;10.70;;;;;;;7.17;100.00;95649.44;6252874;22;20007;-88
2023/02/24 03:34:54;;;;;;;14.63;10.63;;;;;;;7.17;100.00;95650.25;6254782;22;20015;-88
2023/02/24 03:37:32;;;;;;;12.50;9.67;;;;;;;7.21;100.00;95654.22;6253561;22;20043;-88
2023/02/24 03:40:27;;;;;;;17.53;13.00;;;;;;;7.21;100.00;95659.44;6254900;22;20011;-88
2023/02/24 03:43:30;;;;;;;19.43;12.73;;;;;;;7.19;100.00;95650.91;6253708;22;20015;-88
2023/02/24 03:46:00;;;;;;;17.27;12.50;;;;;;;7.23;100.00;95657.47;6256908;22;20097;-88
2023/02/24 03:48:33;;;;;;;20.50;14.10;;;;;;;7.20;100.00;95649.94;6286358;22;20022;-88
2023/02/24 03:50:59;;;;;;;23.03;14.60;;;;;;;7.19;100.00;95655.34;6256470;22;20015;-88
2023/02/24 03:54:31;;;;;;;20.90;15.23;;;;;;;7.26;100.00;95653.75;6259060;22;20064;-88
2023/02/24 03:57:33;;;;;;;22.63;15.43;;;;;;;7.25;100.00;95645.09;6272638;22;20099;-88
2023/02/24 04:00:56;;;;;;;22.37;14.20;;;;;;;7.26;100.00;95651.94;6272801;22;20007;-88
2023/02/24 04:03:17;;;;;;;18.50;13.73;;;;;;;7.21;100.00;95643.75;6268284;22;20043;-89
2023/02/24 04:05:51;;;;;;;21.17;13.93;;;;;;;7.25;100.00;95647.69;6264994;22;20497;-88
2023/02/24 04:08:20;;;;;;;20.90;14.37;;;;;;;7.24;100.00;95640.84;6263485;22;20022;-89
2023/02/24 04:11:04;;;;;;;21.73;15.83;;;;;;;7.19;100.00;95642.25;6255732;22;20085;-89
2023/02/24 04:14:12;;;;;;;;;;;;;;;;;;;;;
2023/02/24 04:17:19;;;;;;;24.53;14.87;;;;;;;7.17;100.00;95631.94;6305252;22;20536;-88
2023/02/24 04:20:09;;;;;;;27.77;16.93;;;;;;;7.16;100.00;95638.16;6253144;22;20034;-89
2023/02/24 04:22:42;;;;;;;31.67;19.20;;;;;;;7.11;100.00;95643.03;6253115;22;20007;-88
2023/02/24 04:25:12;;;;;;;27.10;17.93;;;;;;;7.15;100.00;95644.38;6251942;22;20040;-89
2023/02/24 04:27:45;;;;;;;25.67;17.87;;;;;;;7.14;100.00;95642.69;6252338;22;20064;-89
2023/02/24 04:30:15;;;;;;;26.10;18.13;;;;;;;7.05;100.00;95620.91;6276572;22;20019;-88
2023/02/24 04:32:47;;;;;;;25.53;18.63;;;;;;;7.08;100.00;95627.66;6280314;22;20018;-88
2023/02/24 04:35:18;;;;;;;24.57;17.57;;;;;;;7.19;100.00;95629.19;6254537;22;20030;-88
2023/02/24 04:37:55;;;;;;;27.70;18.80;;;;;;;7.13;100.00;95630.59;6255776;22;20011;-89
2023/02/24 04:40:23;;;;;;;27.40;19.37;;;;;;;7.11;100.00;95622.13;6251980;22;20015;-90
2023/02/24 04:42:53;;;;;;;31.77;21.10;;;;;;;7.13;100.00;95619.34;6251557;22;20015;-89
2023/02/24 04:45:22;;;;;;;31.43;22.03;;;;;;;7.10;100.00;95620.44;6252031;22;20011;-88
2023/02/24 04:47:50;;;;;;;31.90;21.60;;;;;;;7.03;100.00;95612.41;6253095;22;20015;-88
2023/02/24 04:50:24;;;;;;;32.53;22.20;;;;;;;7.09;100.00;95613.59;6253549;22;20022;-88
2023/02/24 04:52:51;;;;;;;32.77;22.63;;;;;;;7.14;100.00;95605.28;6257074;22;20064;-89
2023/02/24 04:55:19;;;;;;;34.50;23.20;;;;;;;7.12;100.00;95596.78;6257556;22;20015;-89
2023/02/24 04:57:52;;;;;;;33.33;23.67;;;;;;;7.17;100.00;95597.94;6255259;22;20569;-90
2023/02/24 05:00:22;;;;;;;25.80;17.45;;;;;;;7.18;100.00;95590.94;6254595;22;20011;-91
2023/02/24 05:02:54;;;;;;;34.70;25.40;;;;;;;7.19;100.00;95592.56;6267180;22;20255;-91
2023/02/24 05:05:51;;;;;;;33.83;23.83;;;;;;;7.24;100.00;95579.84;6264021;22;20060;-88
2023/02/24 05:08:18;;;;;;;32.73;22.47;;;;;;;7.18;100.00;95570.84;6251251;22;20011;-88
2023/02/24 05:10:46;;;;;;;39.10;24.63;;;;;;;7.13;100.00;95577.50;6251848;22;20039;-88
2023/02/24 05:13:37;;;;;;;31.77;22.33;;;;;;;7.06;100.00;95578.09;6251825;22;20625;-90
2023/02/24 05:16:19;;;;;;;34.00;23.33;;;;;;;7.07;100.00;95578.91;6250998;22;20018;-90
2023/02/24 05:18:46;;;;;;;33.47;23.93;;;;;;;7.13;100.00;95580.09;6251100;22;20460;-88
2023/02/24 05:21:34;;;;;;;39.63;24.03;;;;;;;7.06;100.00;95572.06;6251995;22;20015;-88
2023/02/24 05:24:16;;;;;;;34.17;23.00;;;;;;;7.08;100.00;95564.91;6230512;22;20535;-89
2023/02/24 05:26:43;;;;;;;32.40;23.43;;;;;;;7.12;100.00;95565.41;6251173;22;20050;-89
2023/02/24 05:29:14;;;;;;;34.97;23.10;;;;;;;7.16;100.00;95564.13;6250912;22;20445;-90
2023/02/24 05:32:01;;;;;;;38.00;24.87;;;;;;;6.99;100.00;95565.81;6249286;22;20063;-89
2023/02/24 05:34:37;;;;;;;33.80;23.40;;;;;;;7.07;100.00;95561.44;6250846;22;20782;-89
2023/02/24 05:37:11;;;;;;;35.80;22.10;;;;;;;7.08;100.00;95554.44;6225941;22;20027;-88
2023/02/24 05:39:45;;;;;;;;;;;;;;;7.03;100.00;95557.50;6251845;22;20018;-88
2023/02/24 05:42:23;;;;;;;34.30;24.67;;;;;;;7.00;100.00;95554.38;6252147;22;20015;-88
2023/02/24 05:45:04;;;;;;;37.33;23.53;;;;;;;6.91;100.00;95550.06;6254990;22;20022;-88
2023/02/24 05:47:45;;;;;;;34.60;22.80;;;;;;;6.93;100.00;95554.16;6255988;22;20069;-91
2023/02/24 05:50:16;;;;;;;31.57;22.30;;;;;;;6.95;100.00;95551.41;6280602;22;20007;-92
2023/02/24 05:52:48;;;;;;;37.73;24.13;;;;;;;6.94;100.00;95554.97;6259321;22;20411;-87
2023/02/24 05:55:21;;;;;;;32.03;21.00;;;;;;;6.97;100.00;95547.66;6276482;22;20494;-89
2023/02/24 05:57:58;;;;;;;31.60;21.67;;;;;;;6.98;100.00;95543.28;6252636;22;20019;-88
2023/02/24 06:01:21;;;;;;;36.13;21.97;;;;;;;6.96;100.00;95534.75;6256411;22;20030;-88
2023/02/24 06:03:53;;;;;;;35.83;23.17;;;;;;;6.96;100.00;95542.59;6250891;22;20017;-88
2023/02/24 06:06:27;;;;;;;38.23;23.90;;;;;;;7.01;100.00;95540.34;6251363;22;20526;-86
2023/02/24 06:09:00;;;;;;;37.60;25.70;;;;;;;6.98;100.00;95538.03;6253497;22;20060;-89
2023/02/24 06:11:44;;;;;;;38.03;22.87;;;;;;;6.94;100.00;95531.47;6250387;22;20329;-88
2023/02/24 06:14:14;;;;;;;35.97;24.13;;;;;;;6.91;100.00;95537.00;6250588;22;20094;-88
2023/02/24 06:16:44;;;;;;;37.03;24.50;;;;;;;6.94;100.00;95544.53;6250968;22;20102;-92
2023/02/24 06:19:11;;;;;;;38.80;24.83;;;;;;;6.91;100.00;95542.22;6253745;22;20102;-91
2023/02/24 06:21:43;;;;;;;37.77;24.17;;;;;;;6.89;100.00;95528.50;6252884;22;20072;-89
2023/02/24 06:24:16;;;;;;;36.08;25.10;;;;;;;6.90;100.00;95532.75;6251091;22;20011;-88
2023/02/24 06:26:52;;;;;;;40.08;24.98;;;;;;;6.90;100.00;95537.97;6279174;22;20015;-89
2023/02/24 06:29:35;;;;;;;42.67;26.37;;;;;;;6.85;100.00;95535.81;6253717;22;20015;-89
2023/02/24 06:32:41;;;;;;;36.33;25.17;;;;;;;6.84;100.00;95544.63;6253554;22;20466;-90
2023/02/24 06:35:12;;;;;;;35.57;22.23;;;;;;;6.77;100.00;95534.00;6303889;22;20019;-88
2023/02/24 06:37:42;;;;;;;33.47;23.27;;;;;;;6.84;100.00;95529.78;6277017;22;20007;-89
2023/02/24 06:40:23;;;;;;;34.60;22.93;;;;;;;6.87;100.00;95531.25;6252161;22;20378;-92
2023/02/24 06:42:57;;;;;;;35.23;23.83;;;;;;;6.90;100.00;95535.34;6249901;22;20504;-89
2023/02/24 06:45:25;;;;;;;37.57;23.53;;;;;;;6.90;100.00;95532.75;6229619;22;20342;-88
2023/02/24 06:47:51;;;;;;;37.33;24.70;;;;;;;6.83;100.00;95535.97;6251438;22;20133;-90
2023/02/24 06:50:19;;;;;;;37.73;24.03;;;;;;;6.94;100.00;95531.47;6251152;22;20548;-90
2023/02/24 06:52:49;;;;;;;36.93;25.20;;;;;;;6.85;100.00;95523.56;6250206;22;20041;-89
2023/02/24 06:55:24;;;;;;;38.27;23.90;;;;;;;6.83;100.00;95517.66;6250846;22;20011;-90
2023/02/24 06:57:57;;;;;;;38.80;24.20;;;;;;;6.85;100.00;95525.38;6277574;22;20335;-89
2023/02/24 07:00:37;;;;;;;39.80;26.23;;;;;;;6.91;100.00;95527.38;6253305;22;20094;-89
2023/02/24 07:03:13;;;;;;;37.33;25.23;;;;;;;6.99;100.00;95526.59;6252718;22;20015;-89
2023/02/24 07:06:09;;;;;;;40.83;25.87;;;;;;;6.99;100.00;95523.97;6252267;22;20333;-89
2023/02/24 07:08:36;;;;;;;41.17;27.63;;;;;;;7.00;100.00;95523.00;6259859;22;20430;-90
2023/02/24 07:11:05;;;;;;;37.23;25.27;;;;;;;7.08;100.00;95515.22;6259067;22;20031;-88
2023/02/24 07:13:35;;;;;;;40.23;28.17;;;;;;;7.07;100.00;95524.00;6253331;22;20018;-88
2023/02/24 07:16:05;;;;;;;41.13;26.53;;;;;;;7.06;100.00;95519.78;6254466;22;20015;-88
2023/02/24 07:18:35;;;;;;;41.90;26.27;;;;;;;7.07;100.00;95521.41;6279257;22;20011;-88
2023/02/24 07:21:10;;;;;;;41.10;24.77;;;;;;;7.13;100.00;95519.97;6253668;22;20045;-88
2023/02/24 07:24:00;;;;;;;38.13;23.67;;;;;;;7.06;100.00;95520.59;6254666;22;20094;-89
2023/02/24 07:26:42;;;;;;;42.80;27.33;;;;;;;7.06;100.00;95509.31;6255782;22;20387;-90
2023/02/24 07:29:19;;;;;;;41.73;25.33;;;;;;;7.08;100.00;95500.34;6253724;22;20042;-88
2023/02/24 07:31:47;;;;;;;37.73;25.40;;;;;;;7.17;100.00;95505.59;6253816;22;20037;-89
2023/02/24 07:34:22;;;;;;;39.83;24.93;;;;;;;7.16;100.00;95498.75;6254303;22;20011;-88
2023/02/24 07:37:07;;;;;;;38.43;24.23;;;;;;;7.07;100.00;95492.66;6259074;22;20011;-89
2023/02/24 07:39:35;;;;;;;44.20;24.63;;;;;;;7.13;100.00;95491.22;6253800;22;20015;-89
2023/02/24 07:42:04;;;;;;;41.20;25.47;;;;;;;7.15;100.00;95489.28;6252350;22;20556;-88
2023/02/24 07:44:43;;;;;;;43.37;26.67;;;;;;;7.13;100.00;95488.59;6255324;22;20423;-88
2023/02/24 07:47:21;;;;;;;43.90;25.50;;;;;;;7.09;100.00;95485.47;6253456;22;20023;-88
2023/02/24 07:49:48;;;;;;;41.93;27.63;;;;;;;7.22;100.00;95487.66;6279832;22;20019;-92
2023/02/24 07:52:14;;;;;;;40.07;25.57;;;;;;;7.18;100.00;95491.56;6252501;22;20011;-88
2023/02/24 07:54:45;;;;;;;50.47;28.07;;;;;;;7.18;100.00;95486.34;6253174;22;20038;-89
2023/02/24 07:57:12;;;;;;;47.10;26.10;;;;;;;7.23;100.00;95484.88;6252282;22;20022;-88
2023/02/24 07:59:43;;;;;;;49.60;26.83;;;;;;;7.27;100.00;95480.97;6254584;22;20007;-88
2023/02/24 08:02:10;;;;;;;52.73;27.43;;;;;;;7.29;100.00;95484.25;6252713;22;20430;-88
2023/02/24 08:04:39;;;;;;;62.50;30.60;;;;;;;7.37;100.00;95480.03;6255777;22;20018;-87
2023/02/24 08:07:13;;;;;;;60.80;31.53;;;;;;;7.29;100.00;95470.38;6252074;22;20014;-90
2023/02/24 08:12:22;;;;;;;63.37;30.17;;;;;;;7.28;100.00;95477.41;6277156;22;20015;-89
2023/02/24 08:14:58;;;;;;;60.03;30.70;;;;;;;7.32;100.00;95473.50;6252203;22;20018;-90
2023/02/24 08:17:25;;;;;;;62.23;29.97;;;;;;;7.30;100.00;95464.97;6252345;22;20036;-89
2023/02/24 08:20:51;;;;;;;65.67;30.83;;;;;;;7.33;100.00;95464.66;6251196;22;20034;-87
2023/02/24 08:22:52;;;;;;;62.60;31.57;;;;;;;7.41;100.00;95458.66;6267630;22;20007;-87
2023/02/24 08:25:21;;;;;;;62.17;30.47;;;;;;;7.45;100.00;95457.34;6253846;22;20026;-88
2023/02/24 08:27:56;;;;;;;68.30;33.43;;;;;;;7.53;100.00;95459.16;6258427;22;20011;-89
2023/02/24 08:30:28;;;;;;;59.93;31.23;;;;;;;7.39;100.00;95449.31;6272201;22;20003;-89
2023/02/24 08:32:56;;;;;;;85.40;34.33;;;;;;;7.37;100.00;95446.03;6275267;22;20003;-90
2023/02/24 08:35:34;;;;;;;79.67;34.07;;;;;;;7.47;100.00;95449.34;6285422;22;20102;-88
2023/02/24 08:38:15;;;;;;;67.17;34.37;;;;;;;7.45;100.00;95453.91;6280428;22;20091;-88
2023/02/24 08:41:03;;;;;;;61.90;31.77;;;;;;;7.50;100.00;95444.59;6253160;22;20339;-89
2023/02/24 08:43:38;;;;;;;73.60;37.07;;;;;;;7.42;100.00;95451.63;6254842;22;20061;-88
2023/02/24 08:46:19;;;;;;;84.20;37.97;;;;;;;7.44;100.00;95450.47;6275912;22;20007;-93
2023/02/24 08:48:59;;;;;;;118.00;35.20;;;;;;;7.42;100.00;95446.38;6274322;22;20018;-89
2023/02/24 08:51:42;;;;;;;69.13;34.63;;;;;;;7.46;100.00;95438.06;6260793;22;20101;-88
2023/02/24 08:54:14;;;;;;;80.20;36.35;;;;;;;7.50;100.00;95434.13;6251904;22;20453;-91
2023/02/24 08:56:47;;;;;;;80.23;34.80;;;;;;;7.48;100.00;95440.53;6251489;22;20011;-88
2023/02/24 09:02:18;;;;;;;61.30;30.87;;;;;;;7.51;100.00;95425.31;6276858;22;20015;-88
2023/02/24 09:04:46;;;;;;;80.67;34.63;;;;;;;7.48;100.00;95425.66;6251257;22;20019;-88
2023/02/24 09:07:34;;;;;;;71.77;34.73;;;;;;;7.46;100.00;95422.34;6251146;22;20007;-88
2023/02/24 09:10:10;;;;;;;61.53;31.23;;;;;;;7.47;100.00;95423.16;6251913;22;20015;-88
2023/02/24 09:12:40;;;;;;;69.87;33.70;;;;;;;7.53;100.00;95425.97;6249510;22;20060;-90
2023/02/24 09:15:21;;;;;;;70.20;36.03;;;;;;;7.49;100.00;95422.03;6277226;22;20050;-89
2023/02/24 09:23:01;;;;;;;73.10;32.50;;;;;;;7.61;100.00;95414.69;6284681;22;20003;-90
2023/02/24 09:25:40;;;;;;;66.73;31.97;;;;;;;7.45;100.00;95415.50;6262629;22;20430;-88
2023/02/24 09:28:26;;;;;;;66.27;32.33;;;;;;;7.49;100.00;95416.00;6278995;22;20079;-87
2023/02/24 09:31:15;;;;;;;64.27;30.63;;;;;;;7.45;100.00;95405.03;6252209;22;20015;-87
2023/02/24 09:33:49;;;;;;;64.77;30.50;;;;;;;7.39;100.00;95404.84;6251607;22;20095;-88
2023/02/24 09:36:26;;;;;;;67.37;33.53;;;;;;;7.48;100.00;95406.50;6250632;22;20022;-87
2023/02/24 09:41:52;;;;;;;64.90;31.80;;;;;;;7.54;100.00;95403.22;6275010;22;20019;-87
2023/02/24 09:44:43;;;;;;;63.47;31.85;;;;;;;7.61;100.00;95404.22;6249881;22;20019;-87
2023/02/24 09:47:38;;;;;;;72.23;31.67;;;;;;;7.52;100.00;95400.78;6249823;22;20022;-88
2023/02/24 09:50:12;;;;;;;57.90;28.83;;;;;;;7.58;100.00;95394.09;6252008;22;20334;-88
2023/02/24 09:52:41;;;;;;;57.83;29.33;;;;;;;7.60;100.00;95401.78;6251486;22;20011;-87
2023/02/24 09:55:59;;;;;;;59.67;31.23;;;;;;;7.57;100.00;95387.22;6250670;22;20015;-87
2023/02/24 09:58:47;;;;;;;62.73;29.60;;;;;;;7.60;100.00;95380.84;6249892;22;20090;-87
2023/02/24 10:01:51;;;;;;;69.53;32.00;;;;;;;7.59;100.00;95379.22;6251267;22;20148;-87
2023/02/24 10:04:38;;;;;;;65.72;30.90;;;;;;;7.66;100.00;95378.41;6252417;22;20015;-90
2023/02/24 10:07:09;;;;;;;64.03;30.40;;;;;;;7.63;100.00;95381.34;6257140;22;20110;-87
2023/02/24 10:10:18;;;;;;;58.67;28.93;;;;;;;7.56;100.00;95378.56;6251022;22;20015;-88
2023/02/24 10:12:53;;;;;;;56.23;28.47;;;;;;;7.52;100.00;95374.63;6277160;22;20391;-88
2023/02/24 10:15:57;;;;;;;54.47;27.17;;;;;;;7.64;100.00;95371.69;6254494;22;20011;-87
2023/02/24 10:19:15;;;;;;;51.53;25.17;;;;;;;7.49;100.00;95371.53;6251861;22;20007;-88
2023/02/24 10:22:21;;;;;;;55.10;27.43;;;;;;;7.53;100.00;95373.63;6202070;22;19999;-90
2023/02/24 10:25:17;;;;;;;54.03;26.70;;;;;;;7.59;100.00;95368.75;6277365;22;20063;-90
2023/02/24 10:28:00;;;;;;;50.90;25.77;;;;;;;7.63;100.00;95365.63;6252096;22;20019;-88
2023/02/24 10:30:39;;;;;;;123.27;49.53;;;;;;;7.69;100.00;95365.00;6252458;22;20061;-88
2023/02/24 10:33:16;;;;;;;57.93;28.53;;;;;;;7.65;100.00;95360.25;6252506;22;20041;-89
2023/02/24 10:35:43;;;;;;;54.70;25.50;;;;;;;7.56;100.00;95359.41;6252412;22;20038;-88
2023/02/24 10:38:21;;;;;;;48.07;23.17;;;;;;;7.57;100.00;95355.81;6249627;22;20011;-88
2023/02/24 10:40:55;;;;;;;67.97;36.67;;;;;;;7.48;100.00;95351.56;6250399;22;20049;-88
2023/02/24 10:43:31;;;;;;;48.87;25.87;;;;;;;7.59;100.00;95346.03;6253164;22;20007;-88
2023/02/24 10:46:30;;;;;;;43.33;22.63;;;;;;;7.64;100.00;95343.72;6254505;22;20045;-88
2023/02/24 10:49:55;;;;;;;49.63;23.97;;;;;;;7.70;100.00;95350.91;6279186;22;20022;-88
2023/02/24 10:52:36;;;;;;;49.43;23.83;;;;;;;7.82;100.00;95343.56;6277912;22;20022;-89
2023/02/24 10:58:26;;;;;;;43.23;22.83;;;;;;;7.86;100.00;95338.84;6243843;22;20023;-87
2023/02/24 11:01:17;;;;;;;46.27;24.53;;;;;;;7.82;100.00;95334.91;6254735;22;20011;-88
2023/02/24 11:04:11;;;;;;;40.80;21.37;;;;;;;7.74;100.00;95327.84;6254666;22;20422;-88
2023/02/24 11:17:57;;;;;;;37.37;19.67;;;;;;;7.63;100.00;95313.31;6280890;22;20013;-88
2023/02/24 11:20:36;;;;;;;41.43;22.67;;;;;;;7.65;100.00;95311.34;6258890;22;20037;-90
2023/02/24 11:23:17;;;;;;;36.03;19.93;;;;;;;7.63;100.00;95305.47;6289651;22;20014;-88
2023/02/24 11:29:30;;;;;;;45.70;21.90;;;;;;;7.57;100.00;95300.88;6309670;22;20086;-88
2023/02/24 11:32:15;;;;;;;40.83;22.20;;;;;;;7.48;100.00;95288.78;6255288;22;20056;-88
2023/02/24 11:34:50;;;;;;;42.03;21.70;;;;;;;7.63;100.00;95287.16;6260866;22;20015;-87
2023/02/24 11:37:48;;;;;;;39.83;21.77;;;;;;;7.51;100.00;95280.59;6277277;22;20015;-88
2023/02/24 11:40:28;;;;;;;47.13;23.60;;;;;;;7.66;100.00;95276.34;6259565;22;20019;-90
2023/02/24 11:43:31;;;;;;;45.83;24.17;;;;;;;7.67;100.00;95270.13;6262528;22;20013;-88
2023/02/24 11:46:21;;;;;;;46.10;21.87;;;;;;;7.68;100.00;95261.31;6305016;22;19995;-92
2023/02/24 11:48:55;;;;;;;50.17;20.57;;;;;;;7.62;100.00;95254.13;6279643;22;20026;-92
2023/02/24 11:51:33;;;;;;;47.43;22.77;;;;;;;7.54;100.00;95256.72;6264378;22;20014;-88
2023/02/24 11:54:09;;;;;;;41.37;21.23;;;;;;;7.50;100.00;95251.00;6234768;22;20012;-89
2023/02/24 11:56:52;;;;;;;38.60;21.90;;;;;;;7.57;100.00;95244.13;6241942;22;20026;-89
2023/02/24 11:59:18;;;;;;;43.93;22.37;;;;;;;7.52;100.00;95235.16;6253600;22;20011;-90
2023/02/24 12:02:17;;;;;;;36.07;19.93;;;;;;;7.62;100.00;95232.38;6279280;22;20043;-92
2023/02/24 12:05:16;;;;;;;48.57;23.83;;;;;;;7.62;100.00;95227.94;6253240;22;20366;-90
2023/02/24 12:08:23;;;;;;;44.93;24.47;;;;;;;7.60;100.00;95224.66;6253155;22;20018;-89
2023/02/24 12:11:00;;;;;;;39.17;20.53;;;;;;;7.53;100.00;95224.50;6252642;22;20007;-89
2023/02/24 12:13:58;;;;;;;39.40;19.47;;;;;;;7.69;100.00;95217.63;6253123;22;20025;-88
2023/02/24 12:16:35;;;;;;;44.73;21.57;;;;;;;7.72;100.00;95207.66;6278018;22;20038;-90
2023/02/24 12:19:18;;;;;;;35.57;21.33;;;;;;;7.69;100.00;95210.59;6252564;22;20072;-89
2023/02/24 12:21:58;;;;;;;37.93;20.13;;;;;;;7.58;100.00;95210.97;6252535;22;20330;-88
2023/02/24 12:24:24;;;;;;;34.43;19.50;;;;;;;7.63;100.00;95198.19;6253744;22;20101;-91
2023/02/24 12:27:05;;;;;;;39.23;19.93;;;;;;;7.51;100.00;95196.88;6250665;22;20018;-88
2023/02/24 12:30:05;;;;;;;40.33;20.17;;;;;;;7.51;100.00;95189.88;6251269;22;20014;-88
2023/02/24 12:33:17;;;;;;;44.73;22.23;;;;;;;7.73;100.00;95193.56;6251401;22;20337;-88
2023/02/24 12:35:52;;;;;;;41.17;21.17;;;;;;;7.60;100.00;95174.16;6251467;22;20036;-88
2023/02/24 12:38:59;;;;;;;46.13;21.83;;;;;;;7.85;100.00;95164.44;6257838;22;20061;-88
2023/02/24 12:41:42;;;;;;;45.77;23.27;;;;;;;8.02;100.00;95164.22;6217168;22;20017;-89
2023/02/24 12:44:45;;;;;;;46.70;21.52;;;;;;;7.97;100.00;95160.47;6251971;22;20117;-88
2023/02/24 12:47:37;;;;;;;46.00;20.87;;;;;;;8.09;100.00;95156.50;6252248;22;20011;-90
2023/02/24 12:50:16;;;;;;;44.43;23.13;;;;;;;8.31;100.00;95144.44;6253488;22;20015;-88
2023/02/24 12:52:48;;;;;;;44.13;20.87;;;;;;;8.22;100.00;95130.56;6253107;22;20015;-88
2023/02/24 12:55:24;;;;;;;48.13;22.17;;;;;;;8.46;100.00;95113.13;6252684;22;20042;-88
2023/02/24 12:58:24;;;;;;;50.30;27.53;;;;;;;8.58;100.00;95119.56;6279793;22;20011;-89
2023/02/24 13:00:59;;;;;;;45.73;24.83;;;;;;;8.52;100.00;95095.88;6250496;22;20022;-88
2023/02/24 13:03:39;;;;;;;42.47;21.63;;;;;;;8.47;100.00;95091.16;6249876;22;20011;-88
2023/02/24 13:06:25;;;;;;;41.07;20.00;;;;;;;8.76;100.00;95092.28;6252014;22;20019;-91
2023/02/24 13:09:09;;;;;;;41.27;20.20;;;;;;;9.10;100.00;95087.38;6252743;22;20007;-88
2023/02/24 13:12:00;;;;;;;40.50;20.30;;;;;;;9.12;100.00;95077.53;6251860;22;20391;-88
2023/02/24 13:14:34;;;;;;;39.90;19.83;;;;;;;9.31;100.00;95072.75;6253979;22;20011;-88
2023/02/24 13:17:25;;;;;;;27.80;16.00;;;;;;;8.97;100.00;95071.44;6254654;22;20007;-88
2023/02/24 13:20:10;;;;;;;37.73;19.70;;;;;;;8.74;100.00;95071.47;6285950;22;20044;-88
2023/02/24 13:22:43;;;;;;;33.60;18.83;;;;;;;8.47;100.00;95059.72;6259924;22;20015;-88
2023/02/24 13:25:20;;;;;;;33.45;18.40;;;;;;;8.40;100.00;95056.97;6258977;22;20019;-88
2023/02/24 13:28:19;;;;;;;34.10;17.93;;;;;;;8.50;100.00;95064.63;6252729;22;20097;-88
2023/02/24 13:31:01;;;;;;;37.30;19.37;;;;;;;8.47;100.00;95064.97;6252860;22;20015;-88
2023/02/24 13:33:43;;;;;;;29.30;16.47;;;;;;;8.45;100.00;95062.53;6254288;22;20016;-88
2023/02/24 13:36:28;;;;;;;33.77;18.43;;;;;;;8.53;100.00;95053.78;6258467;22;20010;-88
2023/02/24 13:39:05;;;;;;;35.87;19.23;;;;;;;8.56;100.00;95053.44;6286329;22;20011;-87
2023/02/24 13:41:36;;;;;;;40.67;23.07;;;;;;;8.71;100.00;95042.97;6260638;22;20067;-88
2023/02/24 13:44:22;;;;;;;40.13;22.17;;;;;;;8.76;100.00;95047.72;6258269;22;20106;-88
2023/02/24 13:46:52;;;;;;;34.47;18.97;;;;;;;8.67;100.00;95047.78;6259139;22;20015;-88
2023/02/24 13:49:34;;;;;;;32.17;18.20;;;;;;;8.55;100.00;95036.09;6257450;22;20451;-88
2023/02/24 13:52:35;;;;;;;33.77;18.37;;;;;;;8.79;100.00;95042.13;6261452;22;19995;-87
2023/02/24 13:55:15;;;;;;;33.30;17.43;;;;;;;8.76;100.00;95035.41;6242943;22;20304;-88
2023/02/24 13:57:58;;;;;;;31.67;18.33;;;;;;;8.73;100.00;95030.53;6254415;22;20050;-88
2023/02/24 14:01:02;;;;;;;31.83;16.40;;;;;;;8.85;100.00;95023.03;6259386;22;20045;-88
2023/02/24 14:03:30;;;;;;;34.23;17.63;;;;;;;8.92;100.00;95016.09;6254516;22;20015;-88
2023/02/24 14:06:30;;;;;;;27.50;15.80;;;;;;;8.98;100.00;95010.13;6251537;22;20404;-89
2023/02/24 14:09:07;;;;;;;39.47;17.93;;;;;;;8.76;100.00;95014.44;6255226;22;20438;-88